createdAt,value
2023-01-11T00:03:55.805Z,1435
2023-01-11T00:09:26.262Z,1448
2023-01-11T00:16:03.018Z,1435
2023-01-11T00:21:33.578Z,1429
2023-01-11T00:27:04.036Z,1421
2023-01-11T00:32:34.669Z,1430
2023-01-11T00:38:05.112Z,1431
2023-01-11T00:43:35.703Z,1425
2023-01-11T00:49:06.364Z,1418
2023-01-11T00:54:36.799Z,1427
2023-01-11T01:00:07.267Z,1435
2023-01-11T01:05:36.792Z,1422
2023-01-11T01:11:07.247Z,1423
2023-01-11T01:16:36.709Z,1428
2023-01-11T01:22:07.209Z,1434
2023-01-11T01:27:37.689Z,1440
2023-01-11T01:33:07.185Z,1442
2023-01-11T01:38:37.663Z,1454
2023-01-11T01:44:08.103Z,1457
2023-01-11T01:49:38.714Z,1448
2023-01-11T01:55:09.191Z,1454
2023-01-11T02:00:38.725Z,1420
2023-01-11T02:06:09.234Z,1446
2023-01-11T02:11:39.727Z,1447
2023-01-11T02:17:10.300Z,1430
2023-01-11T02:22:40.775Z,1435
2023-01-11T02:28:11.406Z,1438
2023-01-11T02:33:41.839Z,1434
2023-01-11T02:39:12.404Z,1433
2023-01-11T02:44:43.021Z,1484
2023-01-11T02:50:13.469Z,1355
2023-01-11T02:55:43.976Z,1260
2023-01-11T03:01:13.509Z,1244
2023-01-11T03:07:50.022Z,1235
2023-01-11T03:13:20.604Z,1210
2023-01-11T03:18:51.115Z,1188
2023-01-11T03:24:21.677Z,1167
2023-01-11T03:29:51.170Z,1145
2023-01-11T03:35:21.707Z,1130
2023-01-11T03:40:52.247Z,1114
2023-01-11T03:46:22.828Z,1098
2023-01-11T03:51:53.261Z,1077
2023-01-11T03:57:23.823Z,1059
2023-01-11T04:02:54.385Z,1049
2023-01-11T04:08:24.888Z,1028
2023-01-11T04:13:55.446Z,1032
2023-01-11T04:19:25.925Z,1011
2023-01-11T04:24:56.543Z,996
2023-01-11T04:30:27.015Z,996
2023-01-11T04:37:03.604Z,984
2023-01-11T04:42:34.273Z,969
2023-01-11T04:48:04.674Z,967
2023-01-11T04:53:35.245Z,960
2023-01-11T04:59:05.869Z,953
2023-01-11T05:04:36.258Z,947
2023-01-11T05:10:05.752Z,944
2023-01-11T05:15:36.252Z,930
2023-01-11T05:21:06.711Z,928
2023-01-11T05:26:37.340Z,922
2023-01-11T05:32:07.897Z,923
2023-01-11T05:37:38.392Z,917
2023-01-11T05:43:09.104Z,906
2023-01-11T05:48:39.603Z,902
2023-01-11T05:54:10.062Z,908
2023-01-11T05:59:39.560Z,894
2023-01-11T06:05:10.157Z,889
2023-01-11T06:10:40.649Z,887
2023-01-11T06:16:11.233Z,886
2023-01-11T06:21:41.742Z,879
2023-01-11T06:27:12.336Z,876
2023-01-11T06:32:42.815Z,870
2023-01-11T06:38:13.305Z,870
2023-01-11T06:43:42.812Z,858
2023-01-11T06:49:13.246Z,860
2023-01-11T06:54:42.766Z,852
2023-01-11T07:00:13.300Z,850
2023-01-11T07:05:43.700Z,852
2023-01-11T07:11:14.527Z,854
2023-01-11T07:16:44.789Z,852
2023-01-11T07:22:15.301Z,846
2023-01-11T07:27:44.832Z,844
2023-01-11T07:33:15.400Z,838
2023-01-11T07:38:45.877Z,835
2023-01-11T07:44:16.368Z,826
2023-01-11T07:49:46.824Z,825
2023-01-11T07:55:16.560Z,825
2023-01-11T08:00:46.817Z,829
2023-01-11T08:06:17.290Z,824
2023-01-11T08:11:47.862Z,814
2023-01-11T08:17:18.414Z,817
2023-01-11T08:22:48.968Z,811
2023-01-11T08:28:19.440Z,814
2023-01-11T08:33:49.946Z,811
2023-01-11T08:39:20.546Z,812
2023-01-11T08:44:51.118Z,807
2023-01-11T08:50:22.297Z,809
2023-01-11T08:55:52.211Z,803
2023-01-11T09:01:22.754Z,801
2023-01-11T09:06:53.247Z,796
2023-01-11T09:12:23.859Z,794
2023-01-11T09:17:54.363Z,793
2023-01-11T09:23:24.977Z,796
2023-01-11T09:28:55.493Z,788
2023-01-11T09:34:25.922Z,787
2023-01-11T09:39:56.534Z,784
2023-01-11T09:45:26.979Z,782
2023-01-11T09:50:57.515Z,778
2023-01-11T09:56:28.090Z,785
2023-01-11T10:01:58.533Z,778
2023-01-11T10:07:29.240Z,781
2023-01-11T10:23:59.667Z,779
2023-01-11T10:29:30.243Z,782
2023-01-11T10:35:00.602Z,779
2023-01-11T10:40:31.217Z,775
2023-01-11T10:46:01.927Z,774
2023-01-11T10:51:32.304Z,779
2023-01-11T10:57:04.700Z,773
2023-01-11T11:02:32.288Z,779
2023-01-11T11:08:02.901Z,772
2023-01-11T11:13:33.303Z,771
2023-01-11T11:19:03.805Z,767
2023-01-11T11:24:33.261Z,769
2023-01-11T11:30:03.753Z,770
2023-01-11T11:35:33.267Z,763
2023-01-11T11:41:03.728Z,761
2023-01-11T11:46:34.196Z,764
2023-01-11T11:52:04.780Z,769
2023-01-11T11:57:35.262Z,763
2023-01-11T12:03:05.780Z,761
2023-01-11T12:08:35.287Z,760
2023-01-11T12:14:05.732Z,757
2023-01-11T12:19:36.353Z,762
2023-01-11T12:25:06.837Z,761
2023-01-11T12:31:43.363Z,759
2023-01-11T12:37:12.869Z,755
2023-01-11T12:42:43.411Z,752
2023-01-11T12:48:13.922Z,745
2023-01-11T12:53:44.406Z,741
2023-01-11T12:59:14.968Z,738
2023-01-11T13:04:45.562Z,742
2023-01-11T13:10:16.228Z,739
2023-01-11T13:15:46.687Z,732
2023-01-11T13:21:17.127Z,739
2023-01-11T13:26:47.685Z,734
2023-01-11T13:32:17.094Z,733
2023-01-11T13:37:46.560Z,733
2023-01-11T13:43:17.054Z,735
2023-01-11T13:48:47.644Z,733
2023-01-11T13:54:17.058Z,737
2023-01-11T13:59:47.563Z,728
2023-01-11T14:05:18.048Z,735
2023-01-11T14:10:47.619Z,731
2023-01-11T14:16:18.010Z,735
2023-01-11T14:21:47.524Z,734
2023-01-11T14:27:18.009Z,725
2023-01-11T14:32:48.431Z,724
2023-01-11T14:38:19.045Z,724
2023-01-11T14:43:49.630Z,720
2023-01-11T14:49:20.079Z,721
2023-01-11T14:54:49.598Z,713
2023-01-11T15:00:20.036Z,719
2023-01-11T15:05:50.711Z,722
2023-01-11T15:11:21.144Z,712
2023-01-11T15:16:51.611Z,710
2023-01-11T15:22:22.083Z,709
2023-01-11T15:27:51.566Z,707
2023-01-11T15:33:22.053Z,704
2023-01-11T15:38:52.681Z,710
2023-01-11T15:44:23.235Z,713
2023-01-11T15:49:53.659Z,707
2023-01-11T15:55:24.246Z,706
2023-01-11T16:00:54.933Z,702
2023-01-11T16:06:24.229Z,698
2023-01-11T16:11:54.707Z,704
2023-01-11T16:17:25.235Z,705
2023-01-11T16:22:55.911Z,704
2023-01-11T16:28:26.396Z,697
2023-01-11T16:33:56.923Z,697
2023-01-11T16:39:26.341Z,700
2023-01-11T16:44:56.821Z,701
2023-01-11T16:50:27.535Z,697
2023-01-11T16:55:57.872Z,699
2023-01-11T17:01:28.406Z,697
2023-01-11T17:06:59.111Z,806
2023-01-11T17:12:29.559Z,793
2023-01-11T17:18:00.151Z,849
2023-01-11T17:23:30.769Z,853
2023-01-11T17:29:01.098Z,951
2023-01-11T17:34:31.723Z,987
2023-01-11T17:40:02.218Z,920
2023-01-11T17:45:32.764Z,934
2023-01-11T17:51:03.263Z,963
2023-01-11T17:56:33.751Z,960
2023-01-11T18:02:04.559Z,889
2023-01-11T18:07:34.902Z,843
2023-01-11T18:13:05.522Z,835
2023-01-11T18:18:35.974Z,839
2023-01-11T18:24:06.447Z,841
2023-01-11T18:29:37.054Z,842
2023-01-11T18:35:07.610Z,851
2023-01-11T18:40:38.123Z,859
2023-01-11T18:46:08.595Z,859
2023-01-11T18:51:39.171Z,863
2023-01-11T18:57:09.673Z,955
2023-01-11T19:02:42.365Z,997
2023-01-11T19:08:10.745Z,1049
2023-01-11T19:13:41.207Z,1067
2023-01-11T19:19:10.761Z,1111
2023-01-11T19:24:41.170Z,1147
2023-01-11T19:30:11.657Z,1171
2023-01-11T19:35:42.258Z,1251
2023-01-11T19:41:12.744Z,1282
2023-01-11T19:46:43.286Z,1277
2023-01-11T19:52:14.311Z,1314
2023-01-11T19:57:44.298Z,1340
2023-01-11T20:03:14.786Z,1342
2023-01-11T20:08:45.303Z,1340
2023-01-11T20:14:15.853Z,1314
2023-01-11T20:19:46.364Z,1315
2023-01-11T20:25:16.859Z,1299
2023-01-11T20:30:47.573Z,1269
2023-01-11T20:36:18.045Z,1323
2023-01-11T20:41:48.592Z,1293
2023-01-11T20:47:19.096Z,1307
2023-01-11T20:52:49.561Z,1308
2023-01-11T20:58:20.307Z,1303
2023-01-11T21:04:56.813Z,1298
2023-01-11T21:10:27.270Z,1307
2023-01-11T21:15:57.970Z,1328
2023-01-11T21:21:28.362Z,1339
2023-01-11T21:26:58.966Z,1344
2023-01-11T21:32:29.451Z,1359
2023-01-11T21:37:59.891Z,1345
2023-01-11T21:43:29.376Z,1336
2023-01-11T21:48:59.862Z,1297
2023-01-11T21:54:30.324Z,1418
2023-01-11T22:00:00.920Z,1419
2023-01-11T22:05:31.426Z,1474
2023-01-11T22:11:01.904Z,1466
2023-01-11T22:16:32.608Z,1422
2023-01-11T22:22:03.072Z,1392
2023-01-11T22:27:32.537Z,1398
2023-01-11T22:33:02.976Z,1400
2023-01-11T22:38:33.499Z,1399
2023-01-11T22:44:04.065Z,1414
2023-01-11T22:49:34.539Z,1416
2023-01-11T22:55:05.040Z,1417
2023-01-11T23:00:35.604Z,1442
2023-01-11T23:06:06.090Z,1367
2023-01-11T23:11:36.613Z,1462
2023-01-11T23:17:07.255Z,1465
2023-01-11T23:22:37.638Z,1494
2023-01-11T23:28:07.234Z,1406
2023-01-11T23:33:37.702Z,1445
2023-01-11T23:39:08.183Z,1451
2023-01-11T23:44:37.724Z,1442
2023-01-11T23:50:08.154Z,1433
2023-01-11T23:55:38.618Z,1426
